sensor_id;sensor_type;location;lat;lon;timestamp;pressure;altitude;pressure_sealevel;temperature;humidity
35121;BME280;21297;52.008;4.576;2023-05-24T00:02:22;48796.44;;;-143.47;99.03
35121;BME280;21297;52.008;4.576;2023-05-24T00:05:11;48798.41;;;-143.47;98.96
35121;BME280;21297;52.008;4.576;2023-05-24T00:07:57;48780.72;;;-143.47;99.75
35121;BME280;21297;52.008;4.576;2023-05-24T00:10:43;48780.72;;;-143.47;99.17
35121;BME280;21297;52.008;4.576;2023-05-24T00:13:29;48804.31;;;-143.47;100.00
35121;BME280;21297;52.008;4.576;2023-05-24T00:16:14;48794.47;;;-143.47;100.00
35121;BME280;21297;52.008;4.576;2023-05-24T00:19:00;48790.53;;;-143.47;100.00
35121;BME280;21297;52.008;4.576;2023-05-24T00:21:47;48788.59;;;-143.47;100.00
35121;BME280;21297;52.008;4.576;2023-05-24T00:24:33;48808.25;;;-143.47;100.00
35121;BME280;21297;52.008;4.576;2023-05-24T00:27:19;48788.59;;;-143.47;100.00
35121;BME280;21297;52.008;4.576;2023-05-24T00:30:05;48820.03;;;-143.47;100.00
35121;BME280;21297;52.008;4.576;2023-05-24T00:32:51;48802.34;;;-143.47;100.00
35121;BME280;21297;52.008;4.576;2023-05-24T00:35:37;48761.06;;;-143.47;100.00
35121;BME280;21297;52.008;4.576;2023-05-24T00:38:26;48763.03;;;-143.47;100.00
35121;BME280;21297;52.008;4.576;2023-05-24T00:41:11;48784.66;;;-143.47;100.00
35121;BME280;21297;52.008;4.576;2023-05-24T00:43:57;48786.63;;;-143.47;100.00
35121;BME280;21297;52.008;4.576;2023-05-24T00:46:43;48763.03;;;-143.47;100.00
35121;BME280;21297;52.008;4.576;2023-05-24T00:49:28;48814.16;;;-143.47;100.00
35121;BME280;21297;52.008;4.576;2023-05-24T00:52:15;48833.81;;;-143.47;100.00
35121;BME280;21297;52.008;4.576;2023-05-24T00:55:01;48873.13;;;-143.47;100.00
35121;BME280;21297;52.008;4.576;2023-05-24T00:57:47;48829.88;;;-143.47;100.00
35121;BME280;21297;52.008;4.576;2023-05-24T01:00:33;48863.31;;;-143.47;100.00
35121;BME280;21297;52.008;4.576;2023-05-24T01:03:20;48816.09;;;-143.47;100.00
35121;BME280;21297;52.008;4.576;2023-05-24T01:06:07;48812.19;;;-143.47;100.00
35121;BME280;21297;52.008;4.576;2023-05-24T01:09:01;48800.38;;;-143.47;100.00
35121;BME280;21297;52.008;4.576;2023-05-24T01:12:09;48829.88;;;-143.47;100.00
35121;BME280;21297;52.008;4.576;2023-05-24T01:15:08;48827.91;;;-143.47;100.00
35121;BME280;21297;52.008;4.576;2023-05-24T01:18:15;48829.88;;;-143.47;100.00
35121;BME280;21297;52.008;4.576;2023-05-24T01:24:29;48867.22;;;-143.47;100.00
35121;BME280;21297;52.008;4.576;2023-05-24T01:27:17;48867.22;;;-143.47;100.00
35121;BME280;21297;52.008;4.576;2023-05-24T01:30:03;48863.31;;;-143.47;100.00
35121;BME280;21297;52.008;4.576;2023-05-24T01:32:49;48853.47;;;-143.47;100.00
35121;BME280;21297;52.008;4.576;2023-05-24T01:35:35;48865.28;;;-143.47;100.00
35121;BME280;21297;52.008;4.576;2023-05-24T01:38:24;48816.09;;;-143.47;100.00
35121;BME280;21297;52.008;4.576;2023-05-24T01:44:42;48841.66;;;-143.47;100.00
35121;BME280;21297;52.008;4.576;2023-05-24T01:47:41;48882.97;;;-143.47;100.00
35121;BME280;21297;52.008;4.576;2023-05-24T01:50:34;48871.16;;;-143.47;100.00
35121;BME280;21297;52.008;4.576;2023-05-24T01:53:22;48823.97;;;-143.47;100.00
35121;BME280;21297;52.008;4.576;2023-05-24T01:56:11;48841.66;;;-143.47;100.00
35121;BME280;21297;52.008;4.576;2023-05-24T01:58:58;48822.00;;;-143.47;100.00
35121;BME280;21297;52.008;4.576;2023-05-24T02:01:46;48867.22;;;-143.47;100.00
35121;BME280;21297;52.008;4.576;2023-05-24T02:04:33;48831.84;;;-143.47;100.00
35121;BME280;21297;52.008;4.576;2023-05-24T02:07:19;48823.97;;;-143.47;100.00
35121;BME280;21297;52.008;4.576;2023-05-24T02:10:05;48814.16;;;-143.47;100.00
35121;BME280;21297;52.008;4.576;2023-05-24T02:12:51;48780.72;;;-143.47;100.00
35121;BME280;21297;52.008;4.576;2023-05-24T02:15:37;48829.88;;;-143.47;100.00
35121;BME280;21297;52.008;4.576;2023-05-24T02:18:22;48800.38;;;-143.47;100.00
35121;BME280;21297;52.008;4.576;2023-05-24T02:21:08;48839.72;;;-143.47;100.00
35121;BME280;21297;52.008;4.576;2023-05-24T02:23:54;48810.22;;;-143.47;100.00
35121;BME280;21297;52.008;4.576;2023-05-24T02:26:40;48788.59;;;-143.47;100.00
35121;BME280;21297;52.008;4.576;2023-05-24T02:29:26;48804.31;;;-143.47;100.00
35121;BME280;21297;52.008;4.576;2023-05-24T02:32:12;48808.25;;;-143.47;100.00
35121;BME280;21297;52.008;4.576;2023-05-24T02:35:14;48808.25;;;-143.47;100.00
35121;BME280;21297;52.008;4.576;2023-05-24T02:38:05;48761.06;;;-143.47;100.00
35121;BME280;21297;52.008;4.576;2023-05-24T02:40:51;48818.06;;;-143.47;100.00
35121;BME280;21297;52.008;4.576;2023-05-24T02:43:38;48788.59;;;-143.47;100.00
35121;BME280;21297;52.008;4.576;2023-05-24T02:46:24;48794.47;;;-143.47;100.00
35121;BME280;21297;52.008;4.576;2023-05-24T02:49:30;48784.66;;;-143.47;100.00
35121;BME280;21297;52.008;4.576;2023-05-24T02:52:24;48786.63;;;-143.47;100.00
35121;BME280;21297;52.008;4.576;2023-05-24T02:55:17;48800.38;;;-143.47;100.00
35121;BME280;21297;52.008;4.576;2023-05-24T03:02:31;48804.31;;;-143.47;100.00
35121;BME280;21297;52.008;4.576;2023-05-24T05:41:13;49258.56;;;-143.47;91.05
35121;BME280;21297;52.008;4.576;2023-05-24T05:43:59;49244.81;;;-143.47;91.02
35121;BME280;21297;52.008;4.576;2023-05-24T05:46:45;49201.53;;;-143.47;91.93
35121;BME280;21297;52.008;4.576;2023-05-24T05:49:31;49221.19;;;-143.47;93.52
35121;BME280;21297;52.008;4.576;2023-05-24T05:52:20;49207.44;;;-143.47;92.16
35121;BME280;21297;52.008;4.576;2023-05-24T05:55:07;49236.94;;;-143.47;90.64
35121;BME280;21297;52.008;4.576;2023-05-24T05:57:52;49238.91;;;-143.47;89.56
35121;BME280;21297;52.008;4.576;2023-05-24T06:00:39;49215.31;;;-143.47;90.70
35121;BME280;21297;52.008;4.576;2023-05-24T06:03:25;49236.94;;;-143.47;89.47
35121;BME280;21297;52.008;4.576;2023-05-24T06:06:10;49234.97;;;-143.47;91.39
35121;BME280;21297;52.008;4.576;2023-05-24T06:08:56;49280.19;;;-143.47;90.35
35121;BME280;21297;52.008;4.576;2023-05-24T06:11:42;49229.06;;;-143.47;88.94
35121;BME280;21297;52.008;4.576;2023-05-24T06:14:29;49199.56;;;-143.47;89.34
35121;BME280;21297;52.008;4.576;2023-05-24T06:17:16;49274.31;;;-143.47;89.80
35121;BME280;21297;52.008;4.576;2023-05-24T06:20:03;49244.81;;;-143.47;89.16
35121;BME280;21297;52.008;4.576;2023-05-24T06:22:54;49258.56;;;-143.47;88.88
35121;BME280;21297;52.008;4.576;2023-05-24T06:25:39;49246.75;;;-143.47;87.99
35121;BME280;21297;52.008;4.576;2023-05-24T06:28:28;49250.69;;;-143.47;90.19
35121;BME280;21297;52.008;4.576;2023-05-24T06:31:13;49297.91;;;-143.47;84.31
35121;BME280;21297;52.008;4.576;2023-05-24T06:33:59;49266.44;;;-143.47;81.34
35121;BME280;21297;52.008;4.576;2023-05-24T06:36:45;49258.56;;;-143.47;80.14
35121;BME280;21297;52.008;4.576;2023-05-24T06:39:32;49250.69;;;-143.47;83.13
35121;BME280;21297;52.008;4.576;2023-05-24T06:42:18;49327.41;;;-143.47;80.64
35121;BME280;21297;52.008;4.576;2023-05-24T06:45:04;49268.41;;;-143.47;79.65
35121;BME280;21297;52.008;4.576;2023-05-24T06:47:50;49256.59;;;-143.47;79.76
35121;BME280;21297;52.008;4.576;2023-05-24T06:50:36;49307.72;;;-143.47;80.36
35121;BME280;21297;52.008;4.576;2023-05-24T06:53:21;49347.06;;;-143.47;80.79
35121;BME280;21297;52.008;4.576;2023-05-24T06:56:07;49347.06;;;-143.47;79.72
35121;BME280;21297;52.008;4.576;2023-05-24T06:58:54;49319.53;;;-143.47;79.26
35121;BME280;21297;52.008;4.576;2023-05-24T07:01:40;49384.44;;;-143.47;73.89
35121;BME280;21297;52.008;4.576;2023-05-24T07:04:27;49339.19;;;-143.47;75.02
35121;BME280;21297;52.008;4.576;2023-05-24T07:07:13;49345.09;;;-143.47;77.87
35121;BME280;21297;52.008;4.576;2023-05-24T07:09:59;49427.69;;;-143.47;72.54
35121;BME280;21297;52.008;4.576;2023-05-24T07:12:45;49317.56;;;-143.47;73.20
35121;BME280;21297;52.008;4.576;2023-05-24T07:15:30;49341.16;;;-143.47;72.33
35121;BME280;21297;52.008;4.576;2023-05-24T07:18:16;49427.69;;;-143.47;72.86
35121;BME280;21297;52.008;4.576;2023-05-24T07:21:02;49410.00;;;-143.47;72.22
35121;BME280;21297;52.008;4.576;2023-05-24T07:23:49;49378.53;;;-143.47;72.51
35121;BME280;21297;52.008;4.576;2023-05-24T07:26:35;49339.19;;;-143.47;73.36
35121;BME280;21297;52.008;4.576;2023-05-24T07:29:21;49335.25;;;-143.47;73.39
35121;BME280;21297;52.008;4.576;2023-05-24T07:32:07;49396.22;;;-143.47;72.98
35121;BME280;21297;52.008;4.576;2023-05-24T07:34:53;49425.72;;;-143.47;71.90
35121;BME280;21297;52.008;4.576;2023-05-24T07:37:39;49410.00;;;-143.47;72.58
35121;BME280;21297;52.008;4.576;2023-05-24T07:40:25;49480.78;;;-143.47;69.72
35121;BME280;21297;52.008;4.576;2023-05-24T07:43:10;49433.59;;;-143.47;71.44
35121;BME280;21297;52.008;4.576;2023-05-24T07:45:56;49476.88;;;-143.47;68.42
35121;BME280;21297;52.008;4.576;2023-05-24T07:48:42;49480.78;;;-143.47;67.72
35121;BME280;21297;52.008;4.576;2023-05-24T07:51:28;49529.97;;;-143.47;69.21
35121;BME280;21297;52.008;4.576;2023-05-24T07:54:13;49470.97;;;-143.47;68.63
35121;BME280;21297;52.008;4.576;2023-05-24T07:56:59;49488.66;;;-143.47;69.50
35121;BME280;21297;52.008;4.576;2023-05-24T07:59:46;49380.50;;;-143.47;69.32
35121;BME280;21297;52.008;4.576;2023-05-24T08:02:32;49437.53;;;-143.47;68.94
35121;BME280;21297;52.008;4.576;2023-05-24T08:05:18;49439.50;;;-143.47;69.79
35121;BME280;21297;52.008;4.576;2023-05-24T08:08:03;49555.53;;;-143.47;67.38
35121;BME280;21297;52.008;4.576;2023-05-24T08:10:49;49476.88;;;-143.47;68.07
35121;BME280;21297;52.008;4.576;2023-05-24T08:13:34;49585.03;;;-143.47;66.83
35121;BME280;21297;52.008;4.576;2023-05-24T08:16:20;49587.00;;;-143.47;64.38
35121;BME280;21297;52.008;4.576;2023-05-24T08:19:06;49555.53;;;-143.47;66.80
35121;BME280;21297;52.008;4.576;2023-05-24T08:21:53;49598.78;;;-143.47;65.41
35121;BME280;21297;52.008;4.576;2023-05-24T08:25:17;49628.31;;;-143.47;65.18
35121;BME280;21297;52.008;4.576;2023-05-24T08:28:20;49518.16;;;-143.47;65.07
35121;BME280;21297;52.008;4.576;2023-05-24T08:31:06;49484.72;;;-143.47;66.83
35121;BME280;21297;52.008;4.576;2023-05-24T08:33:51;49449.31;;;-143.47;67.65
35121;BME280;21297;52.008;4.576;2023-05-24T08:36:37;49476.88;;;-143.47;68.18
35121;BME280;21297;52.008;4.576;2023-05-24T08:39:23;49559.47;;;-143.47;65.65
35121;BME280;21297;52.008;4.576;2023-05-24T08:42:09;49541.75;;;-143.47;65.60
35121;BME280;21297;52.008;4.576;2023-05-24T08:45:03;49516.19;;;-143.47;65.41
35121;BME280;21297;52.008;4.576;2023-05-24T08:47:50;49512.25;;;-143.47;67.16
35121;BME280;21297;52.008;4.576;2023-05-24T08:50:36;49465.06;;;-143.47;65.42
35121;BME280;21297;52.008;4.576;2023-05-24T08:53:22;49598.78;;;-143.47;64.78
35121;BME280;21297;52.008;4.576;2023-05-24T08:56:09;49563.41;;;-143.47;61.70
35121;BME280;21297;52.008;4.576;2023-05-24T08:58:55;49585.03;;;-143.47;60.71
35121;BME280;21297;52.008;4.576;2023-05-24T09:01:41;49665.66;;;-143.47;59.82
35121;BME280;21297;52.008;4.576;2023-05-24T09:04:27;49720.75;;;-143.47;59.95
35121;BME280;21297;52.008;4.576;2023-05-24T09:07:16;49783.69;;;-143.47;59.93
35121;BME280;21297;52.008;4.576;2023-05-24T09:10:07;49764.00;;;-143.47;59.05
35121;BME280;21297;52.008;4.576;2023-05-24T09:12:55;49630.25;;;-143.47;60.65
35121;BME280;21297;52.008;4.576;2023-05-24T09:15:41;49588.97;;;-143.47;63.00
35121;BME280;21297;52.008;4.576;2023-05-24T09:18:27;49535.88;;;-143.47;62.39
35121;BME280;21297;52.008;4.576;2023-05-24T09:21:13;49614.53;;;-143.47;60.35
35121;BME280;21297;52.008;4.576;2023-05-24T09:23:59;49787.63;;;-143.47;59.21
35121;BME280;21297;52.008;4.576;2023-05-24T09:26:48;49748.28;;;-143.47;59.86
35121;BME280;21297;52.008;4.576;2023-05-24T09:29:35;49868.25;;;-143.47;58.53
35121;BME280;21297;52.008;4.576;2023-05-24T09:32:22;49921.34;;;-143.47;56.92
35121;BME280;21297;52.008;4.576;2023-05-24T09:35:08;49870.22;;;-143.47;58.81
35121;BME280;21297;52.008;4.576;2023-05-24T09:37:55;49964.63;;;-143.47;56.29
35121;BME280;21297;52.008;4.576;2023-05-24T09:40:42;49848.59;;;-143.47;55.51
35121;BME280;21297;52.008;4.576;2023-05-24T09:43:29;49836.78;;;-143.47;57.22
35121;BME280;21297;52.008;4.576;2023-05-24T09:46:19;49655.84;;;-143.47;58.06
35121;BME280;21297;52.008;4.576;2023-05-24T09:49:05;49712.88;;;-143.47;57.77
35121;BME280;21297;52.008;4.576;2023-05-24T09:51:52;49764.00;;;-143.47;56.08
35121;BME280;21297;52.008;4.576;2023-05-24T09:54:38;49750.25;;;-143.47;57.65
35121;BME280;21297;52.008;4.576;2023-05-24T09:57:26;49852.53;;;-143.47;55.30
35121;BME280;21297;52.008;4.576;2023-05-24T10:00:12;49823.00;;;-143.47;56.52
35121;BME280;21297;52.008;4.576;2023-05-24T10:03:05;49762.03;;;-143.47;56.52
35121;BME280;21297;52.008;4.576;2023-05-24T10:05:51;49760.06;;;-143.47;55.03
35121;BME280;21297;52.008;4.576;2023-05-24T10:08:39;49805.31;;;-143.47;55.09
35121;BME280;21297;52.008;4.576;2023-05-24T10:11:25;49842.69;;;-143.47;54.13
35121;BME280;21297;52.008;4.576;2023-05-24T10:14:11;49720.75;;;-143.47;55.55
35121;BME280;21297;52.008;4.576;2023-05-24T10:16:57;49693.19;;;-143.47;55.24
35121;BME280;21297;52.008;4.576;2023-05-24T10:19:43;49736.47;;;-143.47;54.51
35121;BME280;21297;52.008;4.576;2023-05-24T10:22:30;49758.09;;;-143.47;52.86
35121;BME280;21297;52.008;4.576;2023-05-24T10:25:20;49838.75;;;-143.47;51.95
35121;BME280;21297;52.008;4.576;2023-05-24T10:28:07;49885.94;;;-143.47;50.83
35121;BME280;21297;52.008;4.576;2023-05-24T10:31:14;49927.25;;;-143.47;46.45
35121;BME280;21297;52.008;4.576;2023-05-24T10:34:02;50017.75;;;-143.47;50.49
35121;BME280;21297;52.008;4.576;2023-05-24T10:36:50;50035.44;;;-143.47;48.04
35121;BME280;21297;52.008;4.576;2023-05-24T10:39:36;49838.75;;;-143.47;52.78
35121;BME280;21297;52.008;4.576;2023-05-24T10:42:21;49858.41;;;-143.47;51.63
35121;BME280;21297;52.008;4.576;2023-05-24T10:51:30;49933.16;;;-143.47;46.88
35121;BME280;21297;52.008;4.576;2023-05-24T10:54:18;49992.16;;;-143.47;47.84
35121;BME280;21297;52.008;4.576;2023-05-24T10:57:05;49990.19;;;-143.47;47.42
35121;BME280;21297;52.008;4.576;2023-05-24T10:59:51;50003.97;;;-143.47;48.95
35121;BME280;21297;52.008;4.576;2023-05-24T11:02:37;49994.13;;;-143.47;48.47
35121;BME280;21297;52.008;4.576;2023-05-24T11:05:23;49988.22;;;-143.47;48.19
35121;BME280;21297;52.008;4.576;2023-05-24T11:08:09;50019.72;;;-143.47;49.58
35121;BME280;21297;52.008;4.576;2023-05-24T11:11:13;49992.16;;;-143.47;48.85
35121;BME280;21297;52.008;4.576;2023-05-24T11:14:04;49994.13;;;-143.47;49.76
35121;BME280;21297;52.008;4.576;2023-05-24T11:16:50;49862.34;;;-143.47;49.37
35121;BME280;21297;52.008;4.576;2023-05-24T11:19:37;49939.06;;;-143.47;50.11
35121;BME280;21297;52.008;4.576;2023-05-24T11:22:24;49929.22;;;-143.47;49.85
35121;BME280;21297;52.008;4.576;2023-05-24T11:25:09;49844.66;;;-143.47;50.32
35121;BME280;21297;52.008;4.576;2023-05-24T11:27:57;49838.75;;;-143.47;52.36
35121;BME280;21297;52.008;4.576;2023-05-24T11:30:45;49860.38;;;-143.47;51.12
35121;BME280;21297;52.008;4.576;2023-05-24T11:33:31;49824.97;;;-143.47;51.71
35121;BME280;21297;52.008;4.576;2023-05-24T11:36:18;49754.19;;;-143.47;53.10
35121;BME280;21297;52.008;4.576;2023-05-24T11:39:06;49647.97;;;-143.47;53.87
35121;BME280;21297;52.008;4.576;2023-05-24T11:41:52;49744.34;;;-143.47;53.98
35121;BME280;21297;52.008;4.576;2023-05-24T11:44:38;49789.56;;;-143.47;52.93
35121;BME280;21297;52.008;4.576;2023-05-24T11:47:24;49840.72;;;-143.47;53.89
35121;BME280;21297;52.008;4.576;2023-05-24T11:50:14;49791.53;;;-143.47;53.20
35121;BME280;21297;52.008;4.576;2023-05-24T11:53:02;49882.03;;;-143.47;52.86
35121;BME280;21297;52.008;4.576;2023-05-24T11:55:48;49874.16;;;-143.47;52.24
35121;BME280;21297;52.008;4.576;2023-05-24T11:58:43;49842.69;;;-143.47;55.15
35121;BME280;21297;52.008;4.576;2023-05-24T12:01:32;49862.34;;;-143.47;53.79
35121;BME280;21297;52.008;4.576;2023-05-24T12:04:17;49915.47;;;-143.47;52.55
35121;BME280;21297;52.008;4.576;2023-05-24T12:07:03;49803.34;;;-143.47;52.60
35121;BME280;21297;52.008;4.576;2023-05-24T12:09:49;49807.28;;;-143.47;54.71
35121;BME280;21297;52.008;4.576;2023-05-24T12:12:35;49795.47;;;-143.47;54.17
35121;BME280;21297;52.008;4.576;2023-05-24T12:15:21;49893.81;;;-143.47;53.82
35121;BME280;21297;52.008;4.576;2023-05-24T12:18:17;49876.13;;;-143.47;54.82
35121;BME280;21297;52.008;4.576;2023-05-24T12:21:07;49893.81;;;-143.47;52.58
35121;BME280;21297;52.008;4.576;2023-05-24T12:23:53;49858.41;;;-143.47;53.53
35121;BME280;21297;52.008;4.576;2023-05-24T12:26:43;49860.38;;;-143.47;52.24
35121;BME280;21297;52.008;4.576;2023-05-24T12:29:36;49952.81;;;-143.47;52.38
35121;BME280;21297;52.008;4.576;2023-05-24T12:32:22;49803.34;;;-143.47;56.22
35121;BME280;21297;52.008;4.576;2023-05-24T12:35:10;49775.81;;;-143.47;56.02
35121;BME280;21297;52.008;4.576;2023-05-24T12:38:00;49807.28;;;-143.47;55.77
35121;BME280;21297;52.008;4.576;2023-05-24T12:40:46;49832.84;;;-143.47;53.53
35121;BME280;21297;52.008;4.576;2023-05-24T12:43:32;49848.59;;;-143.47;52.80
35121;BME280;21297;52.008;4.576;2023-05-24T12:46:18;49885.94;;;-143.47;54.03
35121;BME280;21297;52.008;4.576;2023-05-24T12:49:03;49795.47;;;-143.47;54.29
35121;BME280;21297;52.008;4.576;2023-05-24T12:51:50;49876.13;;;-143.47;54.41
35121;BME280;21297;52.008;4.576;2023-05-24T12:54:36;49852.53;;;-143.47;54.08
35121;BME280;21297;52.008;4.576;2023-05-24T12:57:21;49897.75;;;-143.47;53.51
35121;BME280;21297;52.008;4.576;2023-05-24T13:00:08;49801.38;;;-143.47;54.98
35121;BME280;21297;52.008;4.576;2023-05-24T13:02:55;49819.09;;;-143.47;55.23
35121;BME280;21297;52.008;4.576;2023-05-24T13:05:43;49862.34;;;-143.47;53.65
35121;BME280;21297;52.008;4.576;2023-05-24T13:08:28;49830.88;;;-143.47;54.05
35121;BME280;21297;52.008;4.576;2023-05-24T13:11:14;49838.75;;;-143.47;53.05
35121;BME280;21297;52.008;4.576;2023-05-24T13:14:03;49815.16;;;-143.47;54.85
35121;BME280;21297;52.008;4.576;2023-05-24T13:16:50;49789.56;;;-143.47;55.25
35121;BME280;21297;52.008;4.576;2023-05-24T13:19:36;49933.16;;;-143.47;54.36
35121;BME280;21297;52.008;4.576;2023-05-24T13:22:22;49878.09;;;-143.47;55.70
35121;BME280;21297;52.008;4.576;2023-05-24T13:25:08;49854.47;;;-143.47;54.05
35121;BME280;21297;52.008;4.576;2023-05-24T13:27:54;49771.88;;;-143.47;55.91
35121;BME280;21297;52.008;4.576;2023-05-24T13:30:40;49807.28;;;-143.47;55.77
35121;BME280;21297;52.008;4.576;2023-05-24T13:33:26;49742.38;;;-143.47;56.59
35121;BME280;21297;52.008;4.576;2023-05-24T13:36:12;49787.63;;;-143.47;56.14
35121;BME280;21297;52.008;4.576;2023-05-24T13:38:58;49765.97;;;-143.47;54.98
35121;BME280;21297;52.008;4.576;2023-05-24T13:41:45;49799.41;;;-143.47;54.87
35121;BME280;21297;52.008;4.576;2023-05-24T13:44:30;49878.09;;;-143.47;54.14
35121;BME280;21297;52.008;4.576;2023-05-24T13:47:16;49972.50;;;-143.47;54.12
35121;BME280;21297;52.008;4.576;2023-05-24T13:50:04;49876.13;;;-143.47;53.60
35121;BME280;21297;52.008;4.576;2023-05-24T13:52:49;49840.72;;;-143.47;54.46
35121;BME280;21297;52.008;4.576;2023-05-24T13:55:35;49842.69;;;-143.47;55.68
35121;BME280;21297;52.008;4.576;2023-05-24T13:58:23;49876.13;;;-143.47;56.17
35121;BME280;21297;52.008;4.576;2023-05-24T14:01:09;49895.78;;;-143.47;53.80
35121;BME280;21297;52.008;4.576;2023-05-24T14:03:55;49921.34;;;-143.47;52.23
35121;BME280;21297;52.008;4.576;2023-05-24T14:06:40;49824.97;;;-143.47;53.86
35121;BME280;21297;52.008;4.576;2023-05-24T14:09:26;49805.31;;;-143.47;55.22
35121;BME280;21297;52.008;4.576;2023-05-24T14:12:13;49769.91;;;-143.47;55.67
35121;BME280;21297;52.008;4.576;2023-05-24T14:14:59;49819.09;;;-143.47;55.69
35121;BME280;21297;52.008;4.576;2023-05-24T14:17:45;49858.41;;;-143.47;54.15
35121;BME280;21297;52.008;4.576;2023-05-24T14:20:32;49789.56;;;-143.47;53.96
35121;BME280;21297;52.008;4.576;2023-05-24T14:23:17;49848.59;;;-143.47;53.82
35121;BME280;21297;52.008;4.576;2023-05-24T14:26:03;49799.41;;;-143.47;53.18
35121;BME280;21297;52.008;4.576;2023-05-24T14:28:49;49941.03;;;-143.47;52.30
35121;BME280;21297;52.008;4.576;2023-05-24T14:31:35;50055.09;;;-143.47;51.74
35121;BME280;21297;52.008;4.576;2023-05-24T14:34:26;49884.00;;;-143.47;52.49
35121;BME280;21297;52.008;4.576;2023-05-24T14:37:12;49832.84;;;-143.47;52.70
35121;BME280;21297;52.008;4.576;2023-05-24T14:39:57;49813.19;;;-143.47;53.05
35121;BME280;21297;52.008;4.576;2023-05-24T14:42:43;49838.75;;;-143.47;53.41
35121;BME280;21297;52.008;4.576;2023-05-24T14:45:28;49819.09;;;-143.47;53.24
35121;BME280;21297;52.008;4.576;2023-05-24T14:48:14;49889.88;;;-143.47;53.59
35121;BME280;21297;52.008;4.576;2023-05-24T14:51:00;49866.28;;;-143.47;53.39
35121;BME280;21297;52.008;4.576;2023-05-24T14:53:46;49750.25;;;-143.47;53.21
35121;BME280;21297;52.008;4.576;2023-05-24T14:56:32;49720.75;;;-143.47;54.08
35121;BME280;21297;52.008;4.576;2023-05-24T14:59:18;49769.91;;;-143.47;53.86
35121;BME280;21297;52.008;4.576;2023-05-24T15:02:03;49773.84;;;-143.47;54.70
35121;BME280;21297;52.008;4.576;2023-05-24T15:04:49;49758.09;;;-143.47;54.10
35121;BME280;21297;52.008;4.576;2023-05-24T15:07:35;49777.78;;;-143.47;53.98
35121;BME280;21297;52.008;4.576;2023-05-24T15:10:20;49838.75;;;-143.47;54.25
35121;BME280;21297;52.008;4.576;2023-05-24T15:13:06;49858.41;;;-143.47;53.70
35121;BME280;21297;52.008;4.576;2023-05-24T15:15:52;49783.69;;;-143.47;53.95
35121;BME280;21297;52.008;4.576;2023-05-24T15:18:39;49762.03;;;-143.47;53.67
35121;BME280;21297;52.008;4.576;2023-05-24T15:21:24;49793.50;;;-143.47;54.06
35121;BME280;21297;52.008;4.576;2023-05-24T15:24:10;49771.88;;;-143.47;54.67
35121;BME280;21297;52.008;4.576;2023-05-24T15:26:57;49779.75;;;-143.47;54.86
35121;BME280;21297;52.008;4.576;2023-05-24T15:29:43;49703.03;;;-143.47;56.64
35121;BME280;21297;52.008;4.576;2023-05-24T15:32:28;49646.00;;;-143.47;59.00
35121;BME280;21297;52.008;4.576;2023-05-24T15:35:15;49592.91;;;-143.47;60.40
35121;BME280;21297;52.008;4.576;2023-05-24T15:38:01;49622.41;;;-143.47;59.57
35121;BME280;21297;52.008;4.576;2023-05-24T15:40:47;49663.69;;;-143.47;59.87
35121;BME280;21297;52.008;4.576;2023-05-24T15:43:33;49685.34;;;-143.47;58.34
35121;BME280;21297;52.008;4.576;2023-05-24T15:46:21;49724.66;;;-143.47;57.85
35121;BME280;21297;52.008;4.576;2023-05-24T15:49:07;49718.78;;;-143.47;58.34
35121;BME280;21297;52.008;4.576;2023-05-24T15:51:53;49699.09;;;-143.47;57.53
35121;BME280;21297;52.008;4.576;2023-05-24T15:54:38;49703.03;;;-143.47;57.18
35121;BME280;21297;52.008;4.576;2023-05-24T15:57:24;49701.06;;;-143.47;57.86
35121;BME280;21297;52.008;4.576;2023-05-24T16:00:10;49705.00;;;-143.47;58.48
35121;BME280;21297;52.008;4.576;2023-05-24T16:02:56;49712.88;;;-143.47;57.38
35121;BME280;21297;52.008;4.576;2023-05-24T16:05:42;49691.25;;;-143.47;58.48
35121;BME280;21297;52.008;4.576;2023-05-24T16:08:28;49685.34;;;-143.47;57.88
35121;BME280;21297;52.008;4.576;2023-05-24T16:11:13;49764.00;;;-143.47;56.57
35121;BME280;21297;52.008;4.576;2023-05-24T16:13:59;49754.19;;;-143.47;56.22
35121;BME280;21297;52.008;4.576;2023-05-24T16:16:45;49728.59;;;-143.47;56.34
35121;BME280;21297;52.008;4.576;2023-05-24T16:19:30;49813.19;;;-143.47;55.55
35121;BME280;21297;52.008;4.576;2023-05-24T16:22:16;49876.13;;;-143.47;53.75
35121;BME280;21297;52.008;4.576;2023-05-24T16:25:02;49864.31;;;-143.47;54.15
35121;BME280;21297;52.008;4.576;2023-05-24T16:27:47;49860.38;;;-143.47;54.15
35121;BME280;21297;52.008;4.576;2023-05-24T16:30:33;49852.53;;;-143.47;55.01
35121;BME280;21297;52.008;4.576;2023-05-24T16:33:21;49972.50;;;-143.47;54.29
35121;BME280;21297;52.008;4.576;2023-05-24T16:36:07;50025.59;;;-143.47;53.05
35121;BME280;21297;52.008;4.576;2023-05-24T16:38:53;49960.69;;;-143.47;54.44
35121;BME280;21297;52.008;4.576;2023-05-24T16:41:39;49956.75;;;-143.47;55.21
35121;BME280;21297;52.008;4.576;2023-05-24T16:44:24;49980.38;;;-143.47;53.69
35121;BME280;21297;52.008;4.576;2023-05-24T16:47:10;49929.22;;;-143.47;56.18
35121;BME280;21297;52.008;4.576;2023-05-24T16:49:56;49824.97;;;-143.47;56.77
35121;BME280;21297;52.008;4.576;2023-05-24T16:52:42;49809.25;;;-143.47;57.60
35121;BME280;21297;52.008;4.576;2023-05-24T16:55:28;49712.88;;;-143.47;58.37
35121;BME280;21297;52.008;4.576;2023-05-24T16:58:14;49612.56;;;-143.47;61.95
35121;BME280;21297;52.008;4.576;2023-05-24T17:00:59;49649.94;;;-143.47;61.32
35121;BME280;21297;52.008;4.576;2023-05-24T17:03:45;49596.84;;;-143.47;62.66
35121;BME280;21297;52.008;4.576;2023-05-24T17:06:30;49596.84;;;-143.47;61.58
35121;BME280;21297;52.008;4.576;2023-05-24T17:09:16;49598.78;;;-143.47;60.88
35121;BME280;21297;52.008;4.576;2023-05-24T17:12:02;49549.63;;;-143.47;62.20
35121;BME280;21297;52.008;4.576;2023-05-24T17:14:48;49526.03;;;-143.47;63.55